Salt Lake City, Utah
Traffic Map
Current Weather Conditions
Salt Lake City, Utah
Scattered Clouds
Scattered Clouds

Feels Like: 2°
Wind Chill: Ceiling: Unl
Heat Index: Visibility: 10mi
Dew Point: -2° Wind: 7mph
Humidity: 65% Direction: 280° (W)
Pressure: 30in Gusts: 0mph
Raw Report DataKSLC 020253Z 28006KT 10SM FEW050 FEW090 SCT160 04/M02 A3000 RMK AO2 SLP161 T00441017 55001
Traffic Incident Summary
Active as of:
Severity:
Category:
InformationThere was an issue retrieving the traffic information for this location. Please try a different location or try again shortly.
Advertisements
Track Severe Weather on mobile